createdAt,value
2018-09-24T00:00:03.095Z,7.80
2018-09-24T00:21:12.513Z,7.70
2018-09-24T00:23:41.728Z,7.70
2018-09-24T00:26:10.515Z,7.80
2018-09-24T00:33:09.776Z,7.80
2018-09-24T00:38:12.867Z,7.80
2018-09-24T00:40:42.206Z,7.80
2018-09-24T00:43:11.138Z,7.80
2018-09-24T01:23:48.034Z,7.70
2018-09-24T01:28:50.493Z,7.60
2018-09-24T01:31:20.515Z,7.70
2018-09-24T01:51:45.838Z,7.60
2018-09-24T02:07:41.743Z,7.70
2018-09-24T02:10:10.568Z,7.60
2018-09-24T02:12:39.385Z,7.60
2018-09-24T02:35:57.554Z,7.50
2018-09-24T02:46:05.616Z,7.50
2018-09-24T02:48:34.464Z,7.50
2018-09-24T02:51:03.313Z,7.60
2018-09-24T02:53:39.752Z,7.50
2018-09-24T02:56:09.079Z,7.50
2018-09-24T02:58:38.003Z,7.50
2018-09-24T03:01:06.966Z,7.40
2018-09-24T03:03:36.215Z,7.40
2018-09-24T03:06:05.056Z,7.40
2018-09-24T03:08:34.054Z,7.40
2018-09-24T03:11:05.586Z,7.40
2018-09-24T03:13:34.457Z,7.50
2018-09-24T03:16:03.387Z,7.40
2018-09-24T03:18:32.205Z,7.50
2018-09-24T03:21:01.150Z,7.50
2018-09-24T03:23:29.930Z,7.50
2018-09-24T03:25:58.730Z,7.50
2018-09-24T03:28:27.573Z,7.50
2018-09-24T03:30:56.591Z,7.50
2018-09-24T03:33:25.392Z,7.40
2018-09-24T03:35:54.179Z,7.50
2018-09-24T03:38:23.049Z,7.50
2018-09-24T03:40:51.832Z,7.50
2018-09-24T03:43:20.692Z,7.50
2018-09-24T03:45:49.687Z,7.60
2018-09-24T03:48:18.481Z,7.50
2018-09-24T03:50:48.193Z,7.60
2018-09-24T03:53:17.047Z,7.50
2018-09-24T03:55:45.863Z,7.50
2018-09-24T03:58:14.699Z,7.50
2018-09-24T04:00:43.515Z,7.50
2018-09-24T04:03:12.301Z,7.50
2018-09-24T04:05:46.609Z,7.40
2018-09-24T04:08:20.657Z,7.30
2018-09-24T04:10:55.107Z,7.30
2018-09-24T04:13:28.978Z,7.40
2018-09-24T04:16:02.938Z,7.40
2018-09-24T04:18:36.854Z,7.40
2018-09-24T04:21:10.889Z,7.40
2018-09-24T04:23:44.984Z,7.30
2018-09-24T04:26:18.912Z,7.30
2018-09-24T04:28:53.007Z,7.30
2018-09-24T04:31:27.163Z,7.30
2018-09-24T04:34:01.109Z,7.30
2018-09-24T04:36:35.210Z,7.30
2018-09-24T04:39:09.268Z,7.30
2018-09-24T04:41:43.373Z,7.30
2018-09-24T04:44:17.312Z,7.30
2018-09-24T04:46:51.484Z,7.30
2018-09-24T04:49:25.394Z,7.30
2018-09-24T04:51:59.343Z,7.20
2018-09-24T04:54:34.301Z,7.30
2018-09-24T04:57:08.316Z,7.30
2018-09-24T04:59:42.958Z,7.20
2018-09-24T05:02:16.905Z,7.20
2018-09-24T05:04:50.958Z,7.20
2018-09-24T05:07:24.950Z,7.20
2018-09-24T05:09:58.839Z,7.10
2018-09-24T05:12:36.430Z,7.00
2018-09-24T05:15:11.187Z,7.00
2018-09-24T05:17:46.854Z,7.00
2018-09-24T05:20:21.338Z,6.90
2018-09-24T05:22:56.219Z,6.90
2018-09-24T05:25:30.277Z,6.80
2018-09-24T05:28:04.292Z,6.80
2018-09-24T05:30:38.619Z,6.90
2018-09-24T05:33:12.475Z,6.90
2018-09-24T05:35:46.447Z,6.80
2018-09-24T05:38:20.422Z,6.70
2018-09-24T05:40:54.669Z,6.70
2018-09-24T05:43:28.642Z,6.80
2018-09-24T05:46:03.579Z,6.80
2018-09-24T05:48:37.692Z,6.90
2018-09-24T05:51:20.213Z,6.90
2018-09-24T05:53:54.234Z,6.80
2018-09-24T05:56:29.987Z,6.70
2018-09-24T05:59:04.068Z,6.70
2018-09-24T06:01:38.692Z,6.80
2018-09-24T06:04:12.735Z,6.70
2018-09-24T06:06:47.756Z,6.80
2018-09-24T06:09:21.931Z,6.80
2018-09-24T06:11:55.842Z,6.90
2018-09-24T06:14:30.329Z,6.90
2018-09-24T06:17:04.324Z,6.90
2018-09-24T06:19:38.994Z,6.90
2018-09-24T06:22:13.910Z,6.90
2018-09-24T06:24:49.181Z,6.90
2018-09-24T06:27:23.397Z,7.00
2018-09-24T06:29:59.230Z,7.10
2018-09-24T06:32:33.968Z,7.20
2018-09-24T06:35:08.229Z,7.20
2018-09-24T06:37:42.495Z,7.20
2018-09-24T06:40:16.666Z,7.20
2018-09-24T06:42:51.918Z,7.30
2018-09-24T06:45:26.357Z,7.30
2018-09-24T06:48:01.445Z,7.50
2018-09-24T06:50:36.831Z,7.50
2018-09-24T06:53:11.054Z,7.70
2018-09-24T06:55:45.162Z,7.80
2018-09-24T06:58:19.454Z,7.90
2018-09-24T07:00:54.231Z,8.00
2018-09-24T07:03:30.053Z,8.10
2018-09-24T07:06:04.676Z,8.00
2018-09-24T07:08:39.505Z,8.10
2018-09-24T07:11:14.898Z,8.20
2018-09-24T07:13:49.721Z,8.00
2018-09-24T07:16:25.367Z,8.30
2018-09-24T07:18:59.554Z,8.50
2018-09-24T07:21:33.663Z,8.60
2018-09-24T07:24:11.118Z,8.70
2018-09-24T07:26:45.844Z,8.70
2018-09-24T07:29:20.448Z,8.90
2018-09-24T07:31:55.689Z,8.80
2018-09-24T07:34:29.938Z,8.80
2018-09-24T07:37:04.263Z,8.80
2018-09-24T07:39:38.936Z,8.70
2018-09-24T07:42:14.743Z,8.70
2018-09-24T07:44:49.255Z,9.00
2018-09-24T07:47:24.023Z,9.30
2018-09-24T07:49:58.103Z,9.40
2018-09-24T07:52:32.269Z,9.80
2018-09-24T07:55:06.960Z,10.20
2018-09-24T07:57:41.356Z,10.20
2018-09-24T08:00:16.678Z,10.30
2018-09-24T08:02:50.993Z,10.40
2018-09-24T08:05:25.583Z,10.50
2018-09-24T08:07:59.669Z,10.70
2018-09-24T08:10:34.797Z,11.00
2018-09-24T08:13:09.084Z,11.30
2018-09-24T08:15:43.178Z,11.50
2018-09-24T08:18:17.186Z,11.30
2018-09-24T08:20:51.282Z,11.00
2018-09-24T08:23:26.546Z,11.10
2018-09-24T08:26:00.447Z,11.30
2018-09-24T08:28:34.519Z,11.30
2018-09-24T08:31:08.584Z,11.20
2018-09-24T08:33:43.214Z,11.30
2018-09-24T08:36:18.075Z,11.60
2018-09-24T08:38:52.611Z,11.70
2018-09-24T08:41:26.826Z,11.80
2018-09-24T08:44:01.159Z,11.90
2018-09-24T08:46:36.251Z,12.00
2018-09-24T08:49:11.263Z,12.20
2018-09-24T08:51:47.063Z,12.20
2018-09-24T08:54:21.788Z,12.60
2018-09-24T08:56:56.260Z,12.80
2018-09-24T08:59:30.170Z,13.20
2018-09-24T09:02:04.336Z,13.20
2018-09-24T09:04:38.393Z,13.30
2018-09-24T09:07:12.668Z,13.60
2018-09-24T09:09:46.671Z,13.80
2018-09-24T09:12:20.628Z,13.90
2018-09-24T09:14:55.312Z,14.10
2018-09-24T09:17:29.311Z,14.10
2018-09-24T09:20:04.167Z,14.00
2018-09-24T09:22:38.445Z,14.10
2018-09-24T09:25:13.742Z,14.00
2018-09-24T09:27:48.688Z,13.80
2018-09-24T09:30:22.980Z,14.10
2018-09-24T09:32:57.669Z,14.30
2018-09-24T09:35:31.951Z,14.70
2018-09-24T09:38:06.958Z,14.70
2018-09-24T09:40:41.377Z,14.60
2018-09-24T09:43:16.167Z,14.60
2018-09-24T09:45:50.599Z,14.70
2018-09-24T09:48:25.406Z,14.80
2018-09-24T09:51:01.931Z,15.00
2018-09-24T09:53:36.331Z,14.70
2018-09-24T09:56:10.422Z,14.40
2018-09-24T09:58:44.453Z,14.30
2018-09-24T10:01:19.227Z,14.30
2018-09-24T10:03:53.453Z,14.20
2018-09-24T10:06:27.687Z,13.90
2018-09-24T10:09:01.712Z,14.10
2018-09-24T10:11:35.775Z,14.20
2018-09-24T10:14:10.682Z,14.30
2018-09-24T10:16:44.675Z,14.50
2018-09-24T10:19:18.791Z,14.30
2018-09-24T10:21:56.565Z,14.10
2018-09-24T10:24:35.067Z,13.70
2018-09-24T10:27:09.213Z,13.30
2018-09-24T10:29:44.805Z,13.10
2018-09-24T10:32:19.827Z,13.00
2018-09-24T10:34:55.174Z,13.70
2018-09-24T10:37:29.948Z,14.10
2018-09-24T10:40:06.279Z,14.70
2018-09-24T10:42:40.381Z,14.70
2018-09-24T10:45:16.675Z,15.10
2018-09-24T10:47:52.963Z,15.40
2018-09-24T10:50:27.174Z,15.10
2018-09-24T10:53:01.721Z,14.60
2018-09-24T10:55:37.077Z,14.20
2018-09-24T10:58:11.457Z,14.10
2018-09-24T11:00:56.358Z,14.00
2018-09-24T11:03:30.501Z,13.90
2018-09-24T11:06:06.996Z,13.70
2018-09-24T11:08:41.378Z,13.50
2018-09-24T11:11:16.655Z,13.80
2018-09-24T11:13:50.726Z,14.00
2018-09-24T11:16:27.002Z,13.80
2018-09-24T11:19:01.166Z,13.80
2018-09-24T11:21:36.760Z,13.80
2018-09-24T11:26:52.244Z,14.10
2018-09-24T11:29:29.355Z,14.10
2018-09-24T11:32:04.526Z,13.90
2018-09-24T11:34:39.131Z,13.40
2018-09-24T11:37:18.909Z,13.20
2018-09-24T11:39:53.652Z,13.10
2018-09-24T11:42:28.771Z,13.30
2018-09-24T11:45:05.135Z,13.90
2018-09-24T11:47:40.575Z,14.10
2018-09-24T11:50:14.928Z,13.90
2018-09-24T11:52:49.061Z,13.70
2018-09-24T11:55:23.832Z,13.70
2018-09-24T11:57:58.014Z,14.10
2018-09-24T12:00:33.866Z,14.60
2018-09-24T12:03:08.521Z,14.70
2018-09-24T12:05:44.151Z,14.40
2018-09-24T12:08:21.688Z,14.50
2018-09-24T12:10:56.520Z,15.60
2018-09-24T12:13:31.149Z,15.90
2018-09-24T12:16:05.318Z,16.60
2018-09-24T12:18:40.288Z,17.20
2018-09-24T12:21:15.948Z,16.30
2018-09-24T12:23:50.655Z,15.50
2018-09-24T12:26:27.730Z,14.80
2018-09-24T12:29:01.755Z,15.10
2018-09-24T12:31:35.911Z,16.40
2018-09-24T12:34:10.187Z,16.70
2018-09-24T12:36:44.770Z,16.50
2018-09-24T12:39:19.314Z,16.00
2018-09-24T12:41:53.278Z,15.20
2018-09-24T12:44:27.648Z,15.10
2018-09-24T12:47:02.179Z,15.30
2018-09-24T12:49:36.902Z,15.80
2018-09-24T12:52:11.305Z,16.30
2018-09-24T12:54:45.195Z,16.80
2018-09-24T12:57:20.643Z,17.00
2018-09-24T12:59:54.799Z,17.20
2018-09-24T13:02:30.191Z,17.70
2018-09-24T13:05:04.689Z,18.00
2018-09-24T13:07:39.359Z,18.40
2018-09-24T13:10:14.270Z,17.90
2018-09-24T13:12:49.161Z,17.50
2018-09-24T13:15:25.095Z,17.80
2018-09-24T13:18:00.128Z,18.40
2018-09-24T13:20:35.540Z,18.70
2018-09-24T13:23:11.335Z,18.80
2018-09-24T13:25:45.524Z,18.00
2018-09-24T13:28:26.844Z,16.70
2018-09-24T13:31:03.828Z,15.80
2018-09-24T13:33:38.680Z,15.10
2018-09-24T13:36:12.912Z,14.30
2018-09-24T13:38:49.399Z,13.50
2018-09-24T13:41:23.695Z,13.10
2018-09-24T13:43:59.964Z,12.90
2018-09-24T13:46:34.035Z,13.30
2018-09-24T13:49:09.448Z,14.20
2018-09-24T13:51:43.443Z,14.80
2018-09-24T13:54:17.521Z,15.20
2018-09-24T13:56:51.747Z,15.10
2018-09-24T13:59:57.027Z,14.90
2018-09-24T14:02:31.208Z,14.60
2018-09-24T14:05:05.153Z,14.20
2018-09-24T14:07:39.183Z,13.90
2018-09-24T14:10:13.232Z,13.70
2018-09-24T14:12:48.244Z,13.40
2018-09-24T14:15:22.369Z,13.00
2018-09-24T14:18:02.278Z,12.60
2018-09-24T14:20:36.594Z,12.30
2018-09-24T14:23:14.187Z,12.40
2018-09-24T14:25:49.891Z,12.50
2018-09-24T14:28:33.886Z,12.80
2018-09-24T14:31:08.790Z,13.10
2018-09-24T14:33:43.334Z,13.30
2018-09-24T14:36:18.245Z,13.30
2018-09-24T14:38:54.601Z,13.30
2018-09-24T14:41:31.972Z,13.40
2018-09-24T14:44:06.700Z,13.40
2018-09-24T14:46:41.136Z,13.50
2018-09-24T14:49:16.645Z,13.60
2018-09-24T14:51:52.656Z,13.70
2018-09-24T14:54:28.335Z,13.70
2018-09-24T14:57:04.017Z,13.50
2018-09-24T14:59:44.231Z,13.40
2018-09-24T15:02:22.453Z,13.10
2018-09-24T15:04:57.182Z,12.80
2018-09-24T15:07:32.195Z,12.50
2018-09-24T15:10:07.606Z,12.60
2018-09-24T15:12:43.003Z,12.70
2018-09-24T15:15:18.976Z,12.70
2018-09-24T15:17:53.696Z,12.90
2018-09-24T15:20:29.396Z,12.80
2018-09-24T15:23:03.825Z,12.60
2018-09-24T15:25:37.748Z,12.40
2018-09-24T15:28:14.237Z,12.00
2018-09-24T15:30:48.398Z,11.70
2018-09-24T15:33:23.167Z,11.40
2018-09-24T15:35:57.202Z,11.30
2018-09-24T15:38:33.305Z,11.30
2018-09-24T15:41:08.315Z,11.20
2018-09-24T15:43:43.501Z,11.20
2018-09-24T15:46:17.891Z,11.20
2018-09-24T15:48:52.982Z,11.10
2018-09-24T15:51:28.024Z,11.00
2018-09-24T15:54:02.375Z,10.90
2018-09-24T15:56:39.453Z,10.90
2018-09-24T15:59:15.958Z,10.80
2018-09-24T16:01:50.443Z,10.70
2018-09-24T16:04:25.150Z,10.60
2018-09-24T16:06:59.253Z,10.60
2018-09-24T16:09:34.947Z,10.50
2018-09-24T16:12:10.461Z,10.40
2018-09-24T16:14:45.227Z,10.40
2018-09-24T16:17:19.842Z,10.30
2018-09-24T16:19:55.009Z,10.20
2018-09-24T16:22:31.179Z,10.10
2018-09-24T16:25:05.523Z,10.10
2018-09-24T16:27:45.296Z,10.10
2018-09-24T16:30:19.989Z,10.20
2018-09-24T16:32:55.188Z,10.20
2018-09-24T16:35:37.107Z,10.30
2018-09-24T16:38:16.129Z,10.40
2018-09-24T16:40:51.107Z,10.40
2018-09-24T16:43:25.642Z,10.30
2018-09-24T16:46:00.303Z,10.30
2018-09-24T16:48:35.453Z,10.20
2018-09-24T16:51:11.122Z,10.10
2018-09-24T16:53:46.156Z,10.00
2018-09-24T16:56:20.770Z,10.00
2018-09-24T16:58:55.246Z,9.80
2018-09-24T17:01:31.500Z,9.80
2018-09-24T17:04:08.202Z,9.70
2018-09-24T17:06:43.870Z,9.70
2018-09-24T17:09:31.185Z,9.80
2018-09-24T17:12:07.041Z,9.70
2018-09-24T17:14:42.719Z,9.70
2018-09-24T17:17:27.985Z,9.60
2018-09-24T17:20:02.333Z,9.60
2018-09-24T17:22:50.301Z,9.50
2018-09-24T17:25:27.932Z,9.50
2018-09-24T17:28:08.545Z,9.40
2018-09-24T17:30:46.262Z,9.30
2018-09-24T17:33:21.774Z,9.40
2018-09-24T17:35:58.402Z,9.30
2018-09-24T17:38:35.191Z,9.30
2018-09-24T17:41:10.059Z,9.20
2018-09-24T17:43:50.297Z,9.20
2018-09-24T17:46:26.215Z,9.10
2018-09-24T17:49:09.401Z,9.20
2018-09-24T17:51:44.796Z,9.20
2018-09-24T17:54:20.153Z,9.20
2018-09-24T17:56:55.092Z,9.10
2018-09-24T18:04:15.249Z,9.10
2018-09-24T18:06:50.414Z,9.10
2018-09-24T18:09:25.076Z,9.10
2018-09-24T18:12:00.539Z,9.10
2018-09-24T18:14:36.065Z,9.10
2018-09-24T18:17:10.960Z,9.10
2018-09-24T18:19:44.952Z,9.10
2018-09-24T18:22:19.613Z,9.10
2018-09-24T18:24:54.029Z,9.10
2018-09-24T18:27:29.271Z,9.10
2018-09-24T18:30:03.489Z,9.10
2018-09-24T18:32:38.031Z,9.20
2018-09-24T18:35:18.627Z,9.10
2018-09-24T18:37:54.789Z,9.00
2018-09-24T18:40:30.348Z,8.80
2018-09-24T18:43:05.638Z,8.70
2018-09-24T18:45:44.883Z,8.70
2018-09-24T18:48:19.218Z,8.60
2018-09-24T18:50:53.429Z,8.50
2018-09-24T18:53:27.561Z,8.40
2018-09-24T18:56:06.259Z,8.40
2018-09-24T18:58:40.389Z,8.40
2018-09-24T19:01:14.557Z,8.40
2018-09-24T19:03:49.582Z,8.40
2018-09-24T19:06:24.098Z,8.40
2018-09-24T19:08:59.498Z,8.30
2018-09-24T19:11:35.779Z,8.30
